Time;durP1;ratioP1;P1;durP2;ratioP2;P2;SDS_P1;SDS_P2;PMS_P1;PMS_P2;Temp;Humidity;BMP_temperature;BMP_pressure;BME280_temperature;BME280_humidity;BME280_pressure;Samples;Min_cycle;Max_cycle;Signal;HPM_P1;HPM_P2
2021/04/24 00:03:07;;;;;;;1.60;0.87;;;;;;;;;;10082867;28;20024;-62
2021/04/24 00:08:07;;;;;;;2.40;1.65;;;;;;;;;;10084840;28;20042;-62
2021/04/24 00:13:05;;;;;;;4.53;1.08;;;;;;;;;;10080790;28;20028;-62
2021/04/24 00:18:03;;;;;;;4.07;1.05;;;;;;;;;;10096403;28;20484;-64
2021/04/24 00:23:01;;;;;;;2.70;1.35;;;;;;;;;;10073303;28;20024;-62
2021/04/24 00:27:58;;;;;;;1.00;0.80;;;;;;;;;;10085823;29;20465;-60
2021/04/24 00:32:56;;;;;;;1.07;0.70;;;;;;;;;;10083366;29;20031;-60
2021/04/24 00:37:53;;;;;;;7.60;1.70;;;;;;;;;;10083192;28;20067;-59
2021/04/24 00:42:51;;;;;;;1.27;1.17;;;;;;;;;;10080218;28;20035;-59
2021/04/24 00:47:49;;;;;;;1.37;1.07;;;;;;;;;;10073265;29;20147;-58
2021/04/24 00:52:46;;;;;;;3.47;0.97;;;;;;;;;;10090305;28;20036;-60
2021/04/24 00:57:44;;;;;;;1.80;0.90;;;;;;;;;;10085350;29;20045;-60
2021/04/24 01:02:42;;;;;;;1.20;1.00;;;;;;;;;;10094687;28;20047;-65
2021/04/24 01:07:41;;;;;;;3.70;0.73;;;;;;;;;;10081950;29;20031;-62
2021/04/24 01:12:38;;;;;;;9.15;0.90;;;;;;;;;;10089401;29;20032;-60
2021/04/24 01:17:35;;;;;;;5.53;1.43;;;;;;;;;;10086518;29;20036;-61
2021/04/24 01:22:33;;;;;;;0.83;0.80;;;;;;;;;;10079211;28;20074;-61
2021/04/24 01:27:31;;;;;;;4.50;1.27;;;;;;;;;;10085324;28;20461;-57
2021/04/24 01:32:28;;;;;;;5.10;1.67;;;;;;;;;;10095762;28;20544;-57
2021/04/24 01:37:25;;;;;;;2.87;1.40;;;;;;;;;;10083671;29;20133;-61
2021/04/24 01:42:23;;;;;;;4.37;0.70;;;;;;;;;;10074701;29;20032;-63
2021/04/24 01:47:21;;;;;;;7.40;1.60;;;;;;;;;;10076799;28;20039;-61
2021/04/24 01:52:18;;;;;;;2.77;1.60;;;;;;;;;;10074854;29;20126;-61
2021/04/24 01:57:16;;;;;;;2.03;0.83;;;;;;;;;;10088536;28;20592;-60
2021/04/24 02:02:13;;;;;;;4.37;1.23;;;;;;;;;;10081229;29;20039;-59
2021/04/24 02:07:11;;;;;;;3.80;1.50;;;;;;;;;;10081812;28;20028;-61
2021/04/24 02:12:10;;;;;;;3.37;2.10;;;;;;;;;;10056178;29;20195;-57
2021/04/24 02:17:09;;;;;;;8.82;2.15;;;;;;;;;;10072705;28;20134;-63
2021/04/24 02:22:07;;;;;;;4.07;1.08;;;;;;;;;;10072761;29;20491;-63
2021/04/24 02:27:06;;;;;;;2.05;1.23;;;;;;;;;;10078990;29;20055;-60
2021/04/24 02:32:04;;;;;;;4.20;1.23;;;;;;;;;;10080113;28;20043;-60
2021/04/24 02:37:01;;;;;;;6.50;1.95;;;;;;;;;;10100088;28;20123;-55
2021/04/24 02:42:00;;;;;;;1.77;1.60;;;;;;;;;;10066378;29;20183;-61
2021/04/24 02:46:58;;;;;;;;;;;;;;;;;;10089308;28;20072;-63
2021/04/24 02:51:56;;;;;;;4.82;1.90;;;;;;;;;;10095086;28;19914;-59
2021/04/24 02:56:53;;;;;;;8.50;2.07;;;;;;;;;;10092574;29;20135;-62
2021/04/24 03:01:51;;;;;;;1.00;0.63;;;;;;;;;;10117985;28;20457;-63
2021/04/24 03:06:49;;;;;;;11.90;2.17;;;;;;;;;;10107075;28;20059;-61
2021/04/24 03:11:47;;;;;;;3.60;1.53;;;;;;;;;;10087847;29;20036;-60
2021/04/24 03:16:44;;;;;;;6.63;2.47;;;;;;;;;;10088485;29;20490;-58
2021/04/24 03:21:41;;;;;;;2.70;1.40;;;;;;;;;;10091561;29;20072;-63
2021/04/24 03:26:39;;;;;;;4.17;1.80;;;;;;;;;;10102849;28;20066;-63
2021/04/24 03:31:36;;;;;;;3.63;1.57;;;;;;;;;;10114903;28;20493;-62
2021/04/24 03:36:34;;;;;;;2.93;1.70;;;;;;;;;;10116057;29;20031;-61
2021/04/24 03:41:32;;;;;;;9.63;2.10;;;;;;;;;;10119222;28;20404;-64
2021/04/24 03:46:29;;;;;;;1.67;1.25;;;;;;;;;;10092923;29;20047;-60
2021/04/24 03:51:27;;;;;;;9.70;2.07;;;;;;;;;;10106289;29;20485;-61
2021/04/24 03:56:24;;;;;;;3.17;1.87;;;;;;;;;;10122377;28;20105;-62
2021/04/24 04:01:22;;;;;;;3.43;1.60;;;;;;;;;;10094638;29;20506;-64
2021/04/24 04:06:19;;;;;;;5.27;2.27;;;;;;;;;;10090198;29;20138;-63
2021/04/24 04:11:16;;;;;;;1.53;1.43;;;;;;;;;;10067119;29;20036;-62
2021/04/24 04:16:14;;;;;;;2.80;1.63;;;;;;;;;;10091188;28;20043;-60
2021/04/24 04:21:12;;;;;;;3.43;1.90;;;;;;;;;;10075690;29;20105;-61
2021/04/24 04:26:10;;;;;;;3.55;1.98;;;;;;;;;;10068103;28;20070;-62
2021/04/24 04:31:07;;;;;;;3.10;1.70;;;;;;;;;;10083757;28;20082;-62
2021/04/24 04:36:05;;;;;;;2.47;1.27;;;;;;;;;;10083439;29;20036;-63
2021/04/24 04:41:03;;;;;;;6.87;1.03;;;;;;;;;;10083712;28;20442;-59
2021/04/24 04:46:00;;;;;;;8.90;1.48;;;;;;;;;;10102152;29;20035;-59
2021/04/24 04:50:58;;;;;;;11.70;2.17;;;;;;;;;;10091039;28;20035;-60
2021/04/24 04:55:56;;;;;;;7.33;1.93;;;;;;;;;;10085746;28;20042;-62
2021/04/24 05:00:54;;;;;;;7.72;1.92;;;;;;;;;;10088285;28;20036;-60
2021/04/24 05:05:51;;;;;;;4.03;1.67;;;;;;;;;;10090155;28;20038;-59
2021/04/24 05:10:48;;;;;;;5.63;1.30;;;;;;;;;;10057129;28;20547;-62
2021/04/24 05:15:46;;;;;;;5.67;1.57;;;;;;;;;;10094746;28;20036;-65
2021/04/24 05:20:44;;;;;;;4.57;1.80;;;;;;;;;;10098509;28;20091;-58
2021/04/24 05:25:41;;;;;;;8.13;1.63;;;;;;;;;;10061804;28;20092;-62
2021/04/24 05:30:39;;;;;;;7.13;1.80;;;;;;;;;;10084364;28;20066;-59
2021/04/24 05:35:36;;;;;;;3.37;0.57;;;;;;;;;;10076257;29;20062;-62
2021/04/24 05:40:34;;;;;;;5.87;1.23;;;;;;;;;;10067321;28;20572;-62
2021/04/24 05:45:31;;;;;;;8.93;2.60;;;;;;;;;;10061355;28;20039;-62
2021/04/24 05:50:28;;;;;;;9.27;2.70;;;;;;;;;;10078524;28;20069;-62
2021/04/24 05:55:26;;;;;;;5.60;0.93;;;;;;;;;;10072357;29;20493;-62
2021/04/24 06:00:24;;;;;;;8.37;1.27;;;;;;;;;;10082234;28;20392;-64
2021/04/24 06:05:21;;;;;;;12.40;1.63;;;;;;;;;;10081125;29;20036;-61
2021/04/24 06:10:19;;;;;;;2.57;1.03;;;;;;;;;;10055892;28;20040;-59
2021/04/24 06:15:19;;;;;;;7.10;1.20;;;;;;;;;;10089714;28;20366;-60
2021/04/24 06:20:16;;;;;;;3.63;1.88;;;;;;;;;;10073010;29;20036;-62
2021/04/24 06:25:15;;;;;;;9.70;1.63;;;;;;;;;;10084898;28;20522;-59
2021/04/24 06:30:14;;;;;;;16.63;2.75;;;;;;;;;;10076487;28;20143;-63
2021/04/24 06:35:12;;;;;;;5.72;1.90;;;;;;;;;;10076983;28;20063;-58
2021/04/24 06:40:10;;;;;;;8.88;1.48;;;;;;;;;;10087972;28;20524;-62
2021/04/24 06:45:09;;;;;;;4.55;1.50;;;;;;;;;;10079588;28;20038;-61
2021/04/24 06:50:07;;;;;;;6.88;1.85;;;;;;;;;;10096281;28;20035;-62
2021/04/24 06:55:06;;;;;;;5.88;1.27;;;;;;;;;;10095838;28;20032;-62
2021/04/24 07:00:06;;;;;;;3.42;1.17;;;;;;;;;;10090445;28;20428;-61
2021/04/24 07:05:04;;;;;;;9.77;1.75;;;;;;;;;;10092133;28;20044;-60
2021/04/24 07:10:03;;;;;;;6.45;1.63;;;;;;;;;;10096568;28;20079;-61
2021/04/24 07:15:01;;;;;;;18.90;2.42;;;;;;;;;;10090405;28;20043;-59
2021/04/24 07:19:58;;;;;;;11.17;1.70;;;;;;;;;;10091879;28;20450;-61
2021/04/24 07:24:55;;;;;;;13.73;1.07;;;;;;;;;;10085891;28;20094;-59
2021/04/24 07:29:53;;;;;;;6.90;2.23;;;;;;;;;;10075349;28;21480;-61
2021/04/24 07:34:50;;;;;;;7.33;0.83;;;;;;;;;;10090213;28;20039;-61
2021/04/24 07:39:48;;;;;;;7.03;1.40;;;;;;;;;;10066793;28;20114;-62
2021/04/24 07:44:45;;;;;;;8.43;1.13;;;;;;;;;;10083221;29;20043;-62
2021/04/24 07:49:42;;;;;;;3.90;1.03;;;;;;;;;;10098727;28;20420;-61
2021/04/24 07:54:43;;;;;;;5.13;0.90;;;;;;;;;;10126723;28;20113;-61
2021/04/24 07:59:40;;;;;;;5.47;1.00;;;;;;;;;;10107808;28;20054;-62
2021/04/24 08:04:38;;;;;;;3.23;0.50;;;;;;;;;;10129625;28;20034;-60
2021/04/24 08:09:36;;;;;;;4.50;0.87;;;;;;;;;;10130497;28;20031;-65
2021/04/24 08:14:33;;;;;;;3.70;0.67;;;;;;;;;;10109689;28;20032;-62
2021/04/24 08:19:31;;;;;;;3.27;0.53;;;;;;;;;;10101845;28;20823;-63
2021/04/24 08:24:28;;;;;;;2.63;0.87;;;;;;;;;;10076306;29;20480;-66
2021/04/24 08:29:26;;;;;;;1.73;1.20;;;;;;;;;;10093314;28;20050;-64
2021/04/24 08:34:25;;;;;;;2.10;0.73;;;;;;;;;;10081582;28;20040;-61
2021/04/24 08:39:22;;;;;;;5.60;0.90;;;;;;;;;;10089130;28;20342;-61
2021/04/24 08:44:20;;;;;;;5.20;0.50;;;;;;;;;;10092534;28;20051;-63
2021/04/24 08:49:18;;;;;;;0.90;0.90;;;;;;;;;;10086344;28;20036;-64
2021/04/24 08:54:15;;;;;;;0.57;0.28;;;;;;;;;;10066487;28;20244;-62
2021/04/24 08:59:13;;;;;;;3.37;0.50;;;;;;;;;;10115946;28;20063;-62
2021/04/24 09:04:10;;;;;;;3.03;0.60;;;;;;;;;;10116210;28;20031;-63
2021/04/24 09:09:10;;;;;;;1.83;0.47;;;;;;;;;;10103695;28;20546;-61
2021/04/24 09:14:09;;;;;;;1.95;0.32;;;;;;;;;;10091955;28;20156;-61
2021/04/24 09:19:25;;;;;;;1.02;0.32;;;;;;;;;;10075125;29;20035;-62
2021/04/24 09:24:35;;;;;;;6.75;0.75;;;;;;;;;;10089569;29;20050;-62
2021/04/24 09:29:33;;;;;;;6.05;0.57;;;;;;;;;;10077549;28;20047;-65
2021/04/24 09:34:31;;;;;;;;;;;;;;;;;;10081037;28;20241;-62
2021/04/24 09:39:29;;;;;;;1.83;1.00;;;;;;;;;;10078903;28;19923;-61
2021/04/24 09:44:27;;;;;;;1.45;0.52;;;;;;;;;;10076434;29;20441;-59
2021/04/24 09:49:27;;;;;;;3.03;0.83;;;;;;;;;;10092772;28;20031;-62
2021/04/24 09:54:33;;;;;;;3.25;0.82;;;;;;;;;;10082169;28;20059;-63
2021/04/24 09:59:31;;;;;;;2.78;0.65;;;;;;;;;;10085613;28;20597;-63
2021/04/24 10:04:30;;;;;;;0.65;0.22;;;;;;;;;;10080247;28;20043;-62
2021/04/24 10:09:31;;;;;;;1.65;0.50;;;;;;;;;;10078075;28;20028;-62
2021/04/24 10:14:36;;;;;;;0.28;0.28;;;;;;;;;;10064500;28;20063;-60
2021/04/24 10:19:35;;;;;;;1.60;0.40;;;;;;;;;;10056015;28;20123;-63
2021/04/24 10:24:33;;;;;;;1.73;0.55;;;;;;;;;;10078539;29;20035;-65
2021/04/24 10:29:31;;;;;;;1.00;0.22;;;;;;;;;;10086770;28;20051;-63
2021/04/24 10:34:31;;;;;;;2.88;0.63;;;;;;;;;;10085078;28;20058;-63
2021/04/24 10:39:29;;;;;;;4.83;0.80;;;;;;;;;;10072291;28;20049;-62
2021/04/24 10:44:42;;;;;;;0.68;0.40;;;;;;;;;;10087605;29;20043;-62
2021/04/24 10:49:56;;;;;;;4.10;0.50;;;;;;;;;;10084337;28;20042;-62
2021/04/24 10:55:12;;;;;;;2.83;0.40;;;;;;;;;;10091486;28;20103;-64
2021/04/24 11:00:15;;;;;;;3.53;0.50;;;;;;;;;;10116958;29;20102;-62
2021/04/24 11:05:18;;;;;;;1.10;0.90;;;;;;;;;;10098441;28;20040;-64
2021/04/24 11:10:17;;;;;;;0.82;0.40;;;;;;;;;;10078831;28;20101;-65
2021/04/24 11:15:15;;;;;;;0.35;0.20;;;;;;;;;;10088648;28;20497;-61
2021/04/24 11:20:33;;;;;;;4.63;0.40;;;;;;;;;;10118871;28;20456;-62
2021/04/24 11:25:31;;;;;;;0.57;0.20;;;;;;;;;;10118109;28;20048;-58
2021/04/24 11:30:47;;;;;;;1.13;0.30;;;;;;;;;;10121300;28;20050;-58
2021/04/24 11:36:08;;;;;;;3.40;0.70;;;;;;;;;;10114190;28;20040;-60
2021/04/24 11:41:24;;;;;;;1.65;0.10;;;;;;;;;;10107538;28;20095;-63
2021/04/24 11:46:32;;;;;;;7.68;1.27;;;;;;;;;;10093947;29;20036;-65
2021/04/24 11:51:37;;;;;;;2.40;0.40;;;;;;;;;;10062474;29;20040;-60
2021/04/24 11:56:35;;;;;;;1.33;0.63;;;;;;;;;;10087054;28;20032;-61
2021/04/24 12:01:32;;;;;;;2.25;0.57;;;;;;;;;;10089941;28;20404;-61
2021/04/24 12:06:34;;;;;;;2.00;0.30;;;;;;;;;;10070353;29;20040;-66
2021/04/24 12:11:31;;;;;;;3.97;0.60;;;;;;;;;;10077284;28;20032;-61
2021/04/24 12:16:37;;;;;;;1.00;0.10;;;;;;;;;;10072478;29;20039;-63
2021/04/24 12:21:34;;;;;;;1.45;0.47;;;;;;;;;;10079492;28;20074;-63
2021/04/24 12:26:32;;;;;;;1.23;0.37;;;;;;;;;;10078047;29;20545;-61
2021/04/24 12:31:30;;;;;;;1.30;0.27;;;;;;;;;;10058903;29;20032;-65
2021/04/24 12:36:39;;;;;;;1.42;0.50;;;;;;;;;;10073853;29;20047;-62
2021/04/24 12:41:36;;;;;;;1.23;0.28;;;;;;;;;;10072188;29;20426;-62
2021/04/24 12:46:35;;;;;;;0.43;0.23;;;;;;;;;;10077218;29;20133;-65
2021/04/24 12:51:32;;;;;;;1.65;0.13;;;;;;;;;;10074540;28;20118;-64
2021/04/24 12:56:31;;;;;;;1.80;0.43;;;;;;;;;;10078528;29;20130;-62
2021/04/24 13:01:28;;;;;;;5.40;0.63;;;;;;;;;;10099900;28;20086;-60
2021/04/24 13:06:26;;;;;;;0.50;0.20;;;;;;;;;;10088399;28;20039;-62
2021/04/24 13:11:24;;;;;;;0.55;0.20;;;;;;;;;;10075912;29;20085;-63
2021/04/24 13:16:32;;;;;;;3.70;0.40;;;;;;;;;;10069969;29;20607;-66
2021/04/24 13:21:30;;;;;;;2.47;0.52;;;;;;;;;;10067975;29;20044;-60
2021/04/24 13:26:28;;;;;;;0.38;0.20;;;;;;;;;;10074117;29;20459;-61
2021/04/24 13:31:25;;;;;;;0.63;0.20;;;;;;;;;;10074373;29;20251;-63
2021/04/24 13:36:23;;;;;;;0.43;0.30;;;;;;;;;;10067427;29;20028;-66
2021/04/24 13:41:21;;;;;;;0.65;0.20;;;;;;;;;;10092143;28;20078;-66
2021/04/24 13:46:18;;;;;;;0.40;0.10;;;;;;;;;;10111640;28;20457;-60
2021/04/24 13:51:16;;;;;;;0.30;0.30;;;;;;;;;;10092479;28;20023;-62
2021/04/24 13:56:13;;;;;;;4.03;0.67;;;;;;;;;;10114242;28;20046;-66
2021/04/24 14:01:11;;;;;;;2.90;0.45;;;;;;;;;;10098561;28;20119;-60
2021/04/24 14:06:08;;;;;;;3.03;0.70;;;;;;;;;;10110289;28;20102;-62
2021/04/24 14:11:06;;;;;;;2.92;0.50;;;;;;;;;;10097474;28;20035;-61
2021/04/24 14:16:05;;;;;;;0.77;0.20;;;;;;;;;;10114530;28;20090;-63
2021/04/24 14:21:03;;;;;;;1.05;0.40;;;;;;;;;;10110258;28;20062;-62
2021/04/24 14:26:00;;;;;;;0.13;0.13;;;;;;;;;;10109286;28;20047;-62
2021/04/24 14:30:58;;;;;;;0.70;0.30;;;;;;;;;;10110007;28;20047;-62
2021/04/24 14:35:56;;;;;;;2.05;0.32;;;;;;;;;;10114153;28;20066;-61
2021/04/24 14:40:53;;;;;;;2.47;0.73;;;;;;;;;;10095737;28;20062;-61
2021/04/24 14:45:51;;;;;;;0.57;0.40;;;;;;;;;;10071610;28;20132;-63
2021/04/24 14:50:48;;;;;;;1.37;0.50;;;;;;;;;;10074637;29;20043;-59
2021/04/24 14:55:46;;;;;;;4.78;0.60;;;;;;;;;;10073170;29;20066;-60
2021/04/24 15:00:44;;;;;;;3.10;0.40;;;;;;;;;;10096186;28;20038;-64
2021/04/24 15:05:42;;;;;;;2.08;0.73;;;;;;;;;;10118988;28;20054;-62
2021/04/24 15:10:41;;;;;;;0.90;0.37;;;;;;;;;;10116916;28;20063;-61
2021/04/24 15:15:39;;;;;;;3.85;1.02;;;;;;;;;;10093062;28;20401;-62
2021/04/24 15:20:36;;;;;;;4.40;0.60;;;;;;;;;;10080583;29;20036;-61
2021/04/24 15:25:34;;;;;;;3.07;0.40;;;;;;;;;;10077256;28;20036;-61
2021/04/24 15:30:32;;;;;;;4.47;0.50;;;;;;;;;;10077466;29;20036;-61
2021/04/24 15:35:31;;;;;;;3.83;0.88;;;;;;;;;;10076224;29;20564;-62
2021/04/24 15:40:28;;;;;;;0.57;0.10;;;;;;;;;;10078037;29;20125;-61
2021/04/24 15:45:25;;;;;;;5.87;0.83;;;;;;;;;;10072070;28;20532;-62
2021/04/24 15:50:25;;;;;;;4.17;0.97;;;;;;;;;;10082771;29;20040;-63
2021/04/24 15:55:22;;;;;;;0.68;0.40;;;;;;;;;;10081623;29;20109;-65
2021/04/24 16:00:20;;;;;;;4.72;1.30;;;;;;;;;;10080820;29;20048;-63
2021/04/24 16:05:18;;;;;;;2.90;0.52;;;;;;;;;;10081259;28;20036;-63
2021/04/24 16:10:17;;;;;;;5.13;1.15;;;;;;;;;;10096040;28;20035;-63
2021/04/24 16:15:15;;;;;;;1.65;0.68;;;;;;;;;;10102512;28;20035;-60
2021/04/24 16:20:13;;;;;;;;;;;;;;;;;;10078516;28;20390;-65
2021/04/24 16:25:11;;;;;;;1.63;0.88;;;;;;;;;;10115248;28;20384;-61
2021/04/24 16:30:09;;;;;;;2.08;0.55;;;;;;;;;;10109776;28;20445;-61
2021/04/24 16:35:07;;;;;;;2.30;0.60;;;;;;;;;;10073474;28;20061;-65
2021/04/24 16:40:06;;;;;;;4.88;2.67;;;;;;;;;;10060067;28;20036;-63
2021/04/24 16:45:03;;;;;;;3.75;1.52;;;;;;;;;;10046814;29;20043;-63
2021/04/24 16:50:01;;;;;;;1.98;0.98;;;;;;;;;;10073322;28;20421;-62
2021/04/24 16:54:58;;;;;;;3.97;1.03;;;;;;;;;;10090523;28;20501;-64
2021/04/24 16:59:56;;;;;;;2.83;0.87;;;;;;;;;;10094714;28;20657;-63
2021/04/24 17:04:53;;;;;;;1.27;1.17;;;;;;;;;;10090803;28;20032;-61
2021/04/24 17:09:51;;;;;;;3.07;1.07;;;;;;;;;;10072633;28;20047;-65
2021/04/24 17:14:48;;;;;;;3.00;0.90;;;;;;;;;;10072751;29;20516;-63
2021/04/24 17:19:46;;;;;;;4.00;1.43;;;;;;;;;;10077410;28;20455;-65
2021/04/24 17:24:44;;;;;;;1.13;1.03;;;;;;;;;;10077647;29;20284;-62
2021/04/24 17:29:41;;;;;;;5.00;2.70;;;;;;;;;;10079302;29;20569;-64
2021/04/24 17:34:39;;;;;;;2.07;0.87;;;;;;;;;;10069345;28;20158;-62
2021/04/24 17:39:38;;;;;;;6.17;0.97;;;;;;;;;;10070196;28;20038;-62
2021/04/24 17:44:35;;;;;;;3.95;1.15;;;;;;;;;;10073793;29;20036;-61
2021/04/24 17:49:33;;;;;;;2.93;1.40;;;;;;;;;;10077492;28;20051;-60
2021/04/24 17:54:30;;;;;;;4.80;1.07;;;;;;;;;;10074914;28;20044;-61
2021/04/24 17:59:28;;;;;;;2.40;0.83;;;;;;;;;;10072120;28;20059;-62
2021/04/24 18:04:25;;;;;;;2.07;1.10;;;;;;;;;;10070977;29;20043;-65
2021/04/24 18:09:23;;;;;;;3.07;0.93;;;;;;;;;;10079984;28;20039;-63
2021/04/24 18:14:20;;;;;;;1.80;0.90;;;;;;;;;;10092270;29;20044;-64
2021/04/24 18:19:17;;;;;;;2.77;1.07;;;;;;;;;;10082653;28;20044;-61
2021/04/24 18:24:15;;;;;;;2.53;0.97;;;;;;;;;;10081784;28;20035;-64
2021/04/24 18:29:12;;;;;;;2.43;1.00;;;;;;;;;;10077100;29;20387;-65
2021/04/24 18:34:10;;;;;;;1.17;0.73;;;;;;;;;;10070500;28;20518;-62
2021/04/24 18:39:07;;;;;;;2.43;0.97;;;;;;;;;;10091961;28;20564;-63
2021/04/24 18:44:04;;;;;;;2.67;1.30;;;;;;;;;;10097822;28;20050;-64
2021/04/24 18:49:02;;;;;;;2.07;1.03;;;;;;;;;;10116391;28;20046;-61
2021/04/24 18:54:01;;;;;;;3.30;1.30;;;;;;;;;;10115820;28;20051;-67
2021/04/24 18:58:58;;;;;;;;;;;;;;;;;;10116269;28;20287;-64
2021/04/24 19:03:56;;;;;;;4.40;1.27;;;;;;;;;;10111923;28;20005;-69
2021/04/24 19:08:54;;;;;;;4.50;1.00;;;;;;;;;;10078350;28;20040;-61
2021/04/24 19:13:52;;;;;;;;;;;;;;;;;;10074821;28;20043;-63
2021/04/24 19:18:49;;;;;;;1.87;1.13;;;;;;;;;;10045457;28;19930;-65
2021/04/24 19:23:47;;;;;;;2.57;0.80;;;;;;;;;;10042967;28;20043;-64
2021/04/24 19:28:44;;;;;;;5.57;1.10;;;;;;;;;;10033658;28;20541;-65
2021/04/24 19:33:42;;;;;;;1.37;1.07;;;;;;;;;;10053451;28;20058;-64
2021/04/24 19:38:39;;;;;;;2.03;1.13;;;;;;;;;;10038649;28;20256;-63
2021/04/24 19:43:36;;;;;;;3.77;1.93;;;;;;;;;;10034164;29;20427;-65
2021/04/24 19:48:34;;;;;;;3.70;1.13;;;;;;;;;;10045476;28;20577;-63
2021/04/24 19:53:32;;;;;;;1.70;0.90;;;;;;;;;;10031496;28;20051;-63
2021/04/24 19:58:29;;;;;;;0.80;0.50;;;;;;;;;;10031475;28;20036;-59
2021/04/24 20:03:26;;;;;;;3.00;1.07;;;;;;;;;;10034495;28;20138;-64
2021/04/24 20:08:25;;;;;;;1.50;0.80;;;;;;;;;;10035233;28;20058;-67
2021/04/24 20:13:23;;;;;;;1.90;0.55;;;;;;;;;;10043630;28;20114;-64
2021/04/24 20:18:22;;;;;;;2.33;1.08;;;;;;;;;;10039707;28;20039;-65
2021/04/24 20:23:20;;;;;;;3.45;0.80;;;;;;;;;;10088133;28;20035;-64
2021/04/24 20:28:17;;;;;;;2.80;0.90;;;;;;;;;;10018198;29;20035;-65
2021/04/24 20:33:15;;;;;;;0.60;0.40;;;;;;;;;;10038932;29;20032;-66
2021/04/24 20:38:12;;;;;;;1.67;0.83;;;;;;;;;;10031866;29;20183;-66
2021/04/24 20:43:10;;;;;;;0.50;0.50;;;;;;;;;;10012488;29;20488;-65
2021/04/24 20:48:08;;;;;;;4.30;1.60;;;;;;;;;;9991514;29;20051;-65
2021/04/24 20:53:05;;;;;;;5.03;1.73;;;;;;;;;;9985646;28;20227;-64
2021/04/24 20:58:03;;;;;;;9.53;1.60;;;;;;;;;;9987717;28;20169;-64
2021/04/24 21:03:00;;;;;;;1.40;0.87;;;;;;;;;;9984814;28;20075;-65
2021/04/24 21:07:58;;;;;;;2.70;0.57;;;;;;;;;;9989401;29;20043;-65
2021/04/24 21:12:55;;;;;;;2.80;0.80;;;;;;;;;;9999348;28;20044;-66
2021/04/24 21:17:53;;;;;;;3.27;0.93;;;;;;;;;;10047826;28;20390;-62
2021/04/24 21:22:50;;;;;;;0.70;0.50;;;;;;;;;;10069255;28;20043;-64
2021/04/24 21:27:49;;;;;;;1.40;0.43;;;;;;;;;;10091658;28;20143;-63
2021/04/24 21:32:47;;;;;;;0.50;0.40;;;;;;;;;;10057128;29;20044;-61
2021/04/24 21:37:44;;;;;;;0.57;0.50;;;;;;;;;;10056007;29;20746;-62
2021/04/24 21:42:42;;;;;;;2.80;0.83;;;;;;;;;;10056946;28;20339;-59
2021/04/24 21:47:40;;;;;;;2.77;0.77;;;;;;;;;;10043462;28;20063;-58
2021/04/24 21:52:38;;;;;;;1.00;0.32;;;;;;;;;;10064225;28;20451;-62
2021/04/24 21:57:36;;;;;;;1.50;0.87;;;;;;;;;;10093493;29;20143;-62
2021/04/24 22:02:33;;;;;;;3.55;0.50;;;;;;;;;;10080893;28;20103;-60
2021/04/24 22:07:31;;;;;;;1.37;0.37;;;;;;;;;;10086973;29;20063;-63
2021/04/24 22:12:28;;;;;;;1.07;0.43;;;;;;;;;;10091878;28;20055;-66
2021/04/24 22:17:26;;;;;;;2.53;0.50;;;;;;;;;;10089443;29;20545;-63
2021/04/24 22:22:23;;;;;;;1.50;0.63;;;;;;;;;;10065122;29;20032;-63
2021/04/24 22:27:21;;;;;;;3.47;0.97;;;;;;;;;;10067872;29;20047;-63
2021/04/24 22:32:19;;;;;;;;;;;;;;;;;;10075029;29;20638;-62
2021/04/24 22:37:16;;;;;;;1.85;0.40;;;;;;;;;;10080813;28;19922;-63
2021/04/24 22:42:14;;;;;;;0.67;0.40;;;;;;;;;;10051514;28;20042;-63
2021/04/24 22:47:11;;;;;;;0.73;0.73;;;;;;;;;;10068940;29;20046;-61
2021/04/24 22:52:08;;;;;;;1.63;0.73;;;;;;;;;;10062995;28;20032;-64
2021/04/24 22:57:06;;;;;;;0.20;0.20;;;;;;;;;;10082361;28;20035;-60
2021/04/24 23:02:03;;;;;;;2.83;0.60;;;;;;;;;;10085715;28;20358;-61
2021/04/24 23:07:01;;;;;;;0.83;0.70;;;;;;;;;;10105154;28;20364;-63
2021/04/24 23:11:58;;;;;;;3.97;0.83;;;;;;;;;;10102814;28;20543;-66
2021/04/24 23:16:56;;;;;;;2.23;0.80;;;;;;;;;;10080817;29;20036;-63
2021/04/24 23:21:53;;;;;;;2.47;0.93;;;;;;;;;;10092653;29;20379;-61
2021/04/24 23:26:51;;;;;;;0.80;0.50;;;;;;;;;;10079775;29;20051;-63
2021/04/24 23:31:48;;;;;;;1.40;0.63;;;;;;;;;;10079323;28;20091;-62
2021/04/24 23:36:46;;;;;;;3.03;0.98;;;;;;;;;;10078128;29;20138;-59
2021/04/24 23:41:44;;;;;;;1.37;0.40;;;;;;;;;;10063613;29;20154;-62
2021/04/24 23:46:41;;;;;;;1.00;0.60;;;;;;;;;;10086892;28;20097;-60
2021/04/24 23:51:39;;;;;;;1.50;0.60;;;;;;;;;;10076497;28;20032;-61
2021/04/24 23:56:36;;;;;;;0.97;0.67;;;;;;;;;;10095545;28;20042;-61
